Time;durP1;ratioP1;P1;durP2;ratioP2;P2;SDS_P1;SDS_P2;PMS_P1;PMS_P2;Temp;Humidity;BMP_temperature;BMP_pressure;BME280_temperature;BME280_humidity;BME280_pressure;Samples;Min_cycle;Max_cycle;Signal;HPM_P1;HPM_P2
2021/08/28 00:01:09;;;;;;;4.70;1.42;;;17.30;63.40;;;;;;5055973;28;20032;-73
2021/08/28 00:03:35;;;;;;;3.65;1.63;;;17.20;63.10;;;;;;5063162;28;20037;-73
2021/08/28 00:06:01;;;;;;;3.47;1.70;;;17.30;63.70;;;;;;5036360;28;20036;-73
2021/08/28 00:08:26;;;;;;;2.75;1.48;;;17.20;62.80;;;;;;5053677;28;20410;-72
2021/08/28 00:10:52;;;;;;;3.10;1.60;;;17.10;62.60;;;;;;5054172;28;20033;-72
2021/08/28 00:13:18;;;;;;;3.58;1.55;;;17.10;63.30;;;;;;5054223;28;20381;-72
2021/08/28 00:15:44;;;;;;;1.38;1.25;;;17.00;62.80;;;;;;5054036;28;20024;-72
2021/08/28 00:18:10;;;;;;;2.17;1.58;;;17.00;63.10;;;;;;5053740;28;20051;-72
2021/08/28 00:20:36;;;;;;;8.95;2.38;;;17.00;63.30;;;;;;5037458;28;20025;-73
2021/08/28 00:23:04;;;;;;;1.45;1.35;;;16.90;63.60;;;;;;5036031;28;20021;-72
2021/08/28 00:25:30;;;;;;;2.28;1.70;;;16.90;64.10;;;;;;5053931;28;20053;-73
2021/08/28 00:27:56;;;;;;;1.67;1.35;;;16.90;64.10;;;;;;5053970;28;20016;-72
2021/08/28 00:30:22;;;;;;;2.00;1.40;;;17.00;64.20;;;;;;5053575;28;20040;-72
2021/08/28 00:32:47;;;;;;;3.58;1.50;;;17.00;64.30;;;;;;5053736;28;20089;-72
2021/08/28 00:35:13;;;;;;;6.22;1.50;;;17.00;64.30;;;;;;5054161;28;20118;-72
2021/08/28 00:37:39;;;;;;;2.25;1.42;;;17.00;64.20;;;;;;5053525;28;20389;-72
2021/08/28 00:40:06;;;;;;;1.83;1.45;;;17.10;64.20;;;;;;5052975;28;20037;-73
2021/08/28 00:42:32;;;;;;;2.85;1.83;;;17.10;64.20;;;;;;5052761;28;20500;-72
2021/08/28 00:44:58;;;;;;;2.10;1.48;;;17.10;64.10;;;;;;5053330;28;20114;-72
2021/08/28 00:47:26;;;;;;;3.60;1.80;;;17.20;64.10;;;;;;5053451;28;20025;-73
2021/08/28 00:49:52;;;;;;;1.95;1.40;;;17.20;64.00;;;;;;5035471;28;20028;-72
2021/08/28 00:52:21;;;;;;;2.28;1.50;;;17.20;63.70;;;;;;5053344;28;20074;-72
2021/08/28 00:54:48;;;;;;;2.38;1.45;;;17.20;63.60;;;;;;5053431;28;20023;-72
2021/08/28 00:57:14;;;;;;;1.67;1.45;;;17.10;63.20;;;;;;5052846;28;20021;-72
2021/08/28 00:59:40;;;;;;;2.05;1.50;;;17.10;63.10;;;;;;5049874;28;21348;-73
2021/08/28 01:02:08;;;;;;;2.70;1.50;;;17.00;63.70;;;;;;5052420;28;20377;-73
2021/08/28 01:04:53;;;;;;;3.60;1.60;;;17.00;62.90;;;;;;5052784;28;20364;-73
2021/08/28 01:07:31;;;;;;;5.22;1.67;;;16.90;63.00;;;;;;5052910;28;20513;-72
2021/08/28 01:10:02;;;;;;;3.60;1.30;;;16.80;63.10;;;;;;5052687;28;20091;-73
2021/08/28 01:12:35;;;;;;;2.40;1.38;;;16.80;63.30;;;;;;5052566;28;20108;-73
2021/08/28 01:15:08;;;;;;;2.47;1.40;;;16.70;63.40;;;;;;5052563;28;20417;-72
2021/08/28 01:17:37;;;;;;;2.92;1.23;;;16.70;63.60;;;;;;5052737;28;20029;-72
2021/08/28 01:20:06;;;;;;;2.20;1.15;;;16.60;63.50;;;;;;5052605;28;20417;-73
2021/08/28 01:22:36;;;;;;;3.15;1.50;;;16.60;63.70;;;;;;5052529;28;20021;-73
2021/08/28 01:25:03;;;;;;;2.60;1.42;;;16.50;63.80;;;;;;5052232;28;20033;-73
2021/08/28 01:27:36;;;;;;;2.38;1.33;;;16.50;63.80;;;;;;5052449;28;20047;-72
2021/08/28 01:30:04;;;;;;;1.87;1.30;;;16.40;64.00;;;;;;5051910;28;20049;-73
2021/08/28 01:32:29;;;;;;;4.03;1.63;;;16.40;63.90;;;;;;5051799;28;20032;-72
2021/08/28 01:34:57;;;;;;;2.97;1.50;;;16.30;64.40;;;;;;5053661;28;20025;-73
2021/08/28 01:37:23;;;;;;;2.70;1.88;;;16.30;64.80;;;;;;5051757;28;20114;-73
2021/08/28 01:39:50;;;;;;;4.32;1.60;;;16.30;64.90;;;;;;5051933;28;20065;-72
2021/08/28 01:42:16;;;;;;;1.73;1.25;;;16.20;65.10;;;;;;5034862;28;20136;-73
2021/08/28 01:44:51;;;;;;;5.75;1.33;;;16.20;65.10;;;;;;5052125;28;20063;-72
2021/08/28 01:47:18;;;;;;;1.60;1.35;;;16.20;65.10;;;;;;5050511;28;20025;-72
2021/08/28 01:49:45;;;;;;;2.38;1.35;;;16.20;64.70;;;;;;5051162;28;20100;-72
2021/08/28 01:52:11;;;;;;;2.75;1.38;;;16.20;64.60;;;;;;5052200;28;20036;-73
2021/08/28 01:54:38;;;;;;;2.58;1.40;;;16.10;64.60;;;;;;5052329;28;20033;-73
2021/08/28 01:57:04;;;;;;;2.22;1.50;;;16.10;64.70;;;;;;5051858;28;20032;-72
2021/08/28 01:59:31;;;;;;;3.08;1.65;;;16.10;64.80;;;;;;5055996;28;20028;-73
2021/08/28 02:01:56;;;;;;;2.45;1.67;;;16.00;64.90;;;;;;5052744;28;20029;-72
2021/08/28 02:04:22;;;;;;;5.55;1.42;;;16.00;65.10;;;;;;5051613;28;20037;-73
2021/08/28 02:07:14;;;;;;;3.72;1.75;;;16.00;65.30;;;;;;5052056;28;20090;-73
2021/08/28 02:09:49;;;;;;;5.05;2.15;;;16.00;65.70;;;;;;5052387;28;20033;-73
2021/08/28 02:12:43;;;;;;;3.42;1.80;;;16.00;65.60;;;;;;5051074;28;20021;-72
2021/08/28 02:15:28;;;;;;;2.65;1.35;;;16.00;65.70;;;;;;5051855;28;20104;-73
2021/08/28 02:18:19;;;;;;;3.75;1.73;;;16.00;65.50;;;;;;5049328;28;20029;-72
2021/08/28 02:20:53;;;;;;;4.05;1.88;;;16.00;65.90;;;;;;5052274;28;20063;-73
2021/08/28 02:23:31;;;;;;;3.03;1.75;;;16.00;66.00;;;;;;5052213;28;20025;-72
2021/08/28 02:26:09;;;;;;;2.75;2.03;;;16.00;66.10;;;;;;5042181;28;20542;-73
2021/08/28 02:28:46;;;;;;;2.88;1.92;;;16.00;66.30;;;;;;5050787;28;20750;-72
2021/08/28 02:31:15;;;;;;;3.58;2.35;;;16.00;66.60;;;;;;5011401;28;20042;-73
2021/08/28 02:33:41;;;;;;;1.98;1.70;;;16.10;66.60;;;;;;5008320;28;20034;-73
2021/08/28 02:36:08;;;;;;;5.45;2.42;;;16.10;66.50;;;;;;5011740;28;20029;-73
2021/08/28 02:38:35;;;;;;;2.10;1.70;;;16.20;66.70;;;;;;5011086;28;20037;-73
2021/08/28 02:41:03;;;;;;;2.40;1.67;;;16.20;66.50;;;;;;5011656;28;20026;-73
2021/08/28 02:43:30;;;;;;;2.78;1.80;;;16.30;66.50;;;;;;5012378;28;20018;-73
2021/08/28 02:45:57;;;;;;;3.75;1.90;;;16.30;66.40;;;;;;5012701;28;20048;-73
2021/08/28 02:48:25;;;;;;;4.68;2.40;;;16.40;66.50;;;;;;5011384;28;20080;-72
2021/08/28 02:50:57;;;;;;;3.25;2.15;;;16.40;66.60;;;;;;5012609;28;20045;-73
2021/08/28 02:53:24;;;;;;;4.68;2.10;;;16.50;66.90;;;;;;5012071;28;20025;-73
2021/08/28 02:55:51;;;;;;;3.28;2.03;;;16.50;66.60;;;;;;5008609;28;20087;-73
2021/08/28 02:58:22;;;;;;;3.55;2.10;;;16.60;66.70;;;;;;5012599;28;20034;-73
2021/08/28 03:00:49;;;;;;;2.00;1.77;;;16.60;66.60;;;;;;5015599;28;20030;-73
2021/08/28 03:03:17;;;;;;;2.22;1.48;;;16.60;66.70;;;;;;5015311;28;20018;-72
2021/08/28 03:05:46;;;;;;;2.35;1.77;;;16.70;66.70;;;;;;5031247;28;20030;-73
2021/08/28 03:08:15;;;;;;;4.53;2.35;;;16.70;66.70;;;;;;5014650;28;20399;-72
2021/08/28 03:10:53;;;;;;;3.13;1.80;;;16.70;66.70;;;;;;5015885;28;20036;-73
2021/08/28 03:13:19;;;;;;;3.45;1.90;;;16.80;66.70;;;;;;5014955;28;20110;-73
2021/08/28 03:15:47;;;;;;;2.08;1.73;;;16.80;66.60;;;;;;5015678;28;20064;-73
2021/08/28 03:18:16;;;;;;;4.32;2.50;;;16.80;66.70;;;;;;5010168;28;20021;-73
2021/08/28 03:20:45;;;;;;;3.20;2.17;;;16.80;66.80;;;;;;5014420;28;20045;-73
2021/08/28 03:23:14;;;;;;;4.25;2.17;;;16.80;66.80;;;;;;5013357;28;20114;-72
2021/08/28 03:25:41;;;;;;;3.30;2.20;;;16.80;66.90;;;;;;5014636;28;20365;-73
2021/08/28 03:28:09;;;;;;;4.22;1.73;;;16.80;67.00;;;;;;5015649;28;20030;-73
2021/08/28 03:30:35;;;;;;;2.95;2.58;;;16.80;67.00;;;;;;5046631;28;20065;-73
2021/08/28 03:33:02;;;;;;;2.15;1.75;;;16.80;67.00;;;;;;5055200;28;20029;-73
2021/08/28 03:35:28;;;;;;;3.70;2.30;;;16.80;67.00;;;;;;5055087;28;20021;-72
2021/08/28 03:37:56;;;;;;;2.70;2.10;;;16.80;67.10;;;;;;5054851;28;20021;-73
2021/08/28 03:40:22;;;;;;;2.40;1.73;;;16.90;66.90;;;;;;5035581;28;20065;-72
2021/08/28 03:42:48;;;;;;;3.85;2.00;;;16.90;66.90;;;;;;5054387;28;20075;-72
2021/08/28 03:45:14;;;;;;;2.33;1.60;;;16.90;67.10;;;;;;5036043;28;20021;-72
2021/08/28 03:47:44;;;;;;;2.25;1.75;;;16.90;67.20;;;;;;5036826;28;20108;-73
2021/08/28 03:50:10;;;;;;;2.63;1.77;;;16.90;67.20;;;;;;5054828;28;20029;-72
2021/08/28 03:52:36;;;;;;;2.40;1.58;;;16.90;67.00;;;;;;5054804;28;20036;-72
2021/08/28 03:55:02;;;;;;;2.45;1.92;;;16.90;66.90;;;;;;5054851;28;20025;-73
2021/08/28 03:57:28;;;;;;;2.92;2.08;;;16.90;67.10;;;;;;5054476;28;20059;-73
2021/08/28 03:59:54;;;;;;;3.00;2.00;;;16.90;67.00;;;;;;5054770;28;20021;-72
2021/08/28 04:02:20;;;;;;;2.80;2.00;;;16.90;67.00;;;;;;5050526;28;20033;-73
2021/08/28 04:04:45;;;;;;;3.40;2.22;;;16.90;67.00;;;;;;5053198;28;20029;-72
2021/08/28 04:07:11;;;;;;;2.60;2.10;;;16.90;67.00;;;;;;5053657;28;20024;-72
2021/08/28 04:09:40;;;;;;;5.15;1.80;;;16.90;66.90;;;;;;5053142;28;20025;-73
2021/08/28 04:12:06;;;;;;;3.97;2.53;;;16.80;66.90;;;;;;5054202;28;20052;-72
2021/08/28 04:14:31;;;;;;;2.25;2.05;;;16.90;67.10;;;;;;5054495;28;20447;-73
2021/08/28 04:16:57;;;;;;;4.28;2.50;;;16.90;67.30;;;;;;5054422;28;20077;-73
2021/08/28 04:19:23;;;;;;;3.25;1.92;;;16.90;67.40;;;;;;5054331;28;20076;-72
2021/08/28 04:21:49;;;;;;;2.10;1.75;;;16.80;67.30;;;;;;5054333;28;20096;-73
2021/08/28 04:24:15;;;;;;;2.83;1.90;;;16.90;68.20;;;;;;5040160;28;20036;-72
2021/08/28 04:26:40;;;;;;;3.15;1.92;;;16.90;67.60;;;;;;5053327;28;20043;-73
2021/08/28 04:29:06;;;;;;;3.20;2.63;;;16.90;67.50;;;;;;5052995;28;20048;-72
2021/08/28 04:31:32;;;;;;;2.50;2.30;;;16.90;67.40;;;;;;5053806;28;20087;-72
2021/08/28 04:33:58;;;;;;;4.22;2.90;;;16.90;67.40;;;;;;5054125;28;20112;-72
2021/08/28 04:36:23;;;;;;;7.28;3.80;;;16.90;67.40;;;;;;5054035;28;20067;-72
2021/08/28 04:38:49;;;;;;;4.70;2.55;;;17.00;67.40;;;;;;5054056;28;20135;-72
2021/08/28 04:41:15;;;;;;;2.60;2.40;;;17.00;67.40;;;;;;5036068;28;20029;-72
2021/08/28 04:43:41;;;;;;;7.88;3.08;;;17.00;67.40;;;;;;5053141;28;20028;-72
2021/08/28 04:46:07;;;;;;;3.00;2.50;;;17.00;67.30;;;;;;5032561;28;20033;-72
2021/08/28 04:48:33;;;;;;;6.18;3.00;;;17.00;67.40;;;;;;5034913;28;20029;-72
2021/08/28 04:50:58;;;;;;;5.18;3.00;;;17.10;67.70;;;;;;5052476;28;20032;-73
2021/08/28 04:53:25;;;;;;;4.43;2.78;;;17.10;67.50;;;;;;5053165;28;20028;-72
2021/08/28 04:55:50;;;;;;;5.22;3.10;;;17.10;67.60;;;;;;5053551;28;20532;-72
2021/08/28 04:58:16;;;;;;;5.10;3.08;;;17.10;67.40;;;;;;5053353;28;20041;-72
2021/08/28 05:00:42;;;;;;;4.25;2.80;;;17.10;67.40;;;;;;5053562;28;20028;-73
2021/08/28 05:03:08;;;;;;;3.97;2.95;;;17.20;67.30;;;;;;5035418;28;20470;-72
2021/08/28 05:05:33;;;;;;;3.88;2.65;;;17.20;67.20;;;;;;5050280;28;20064;-72
2021/08/28 05:07:59;;;;;;;5.20;3.13;;;17.20;67.00;;;;;;5051248;28;20021;-72
2021/08/28 05:10:25;;;;;;;5.50;3.35;;;17.20;66.80;;;;;;5052722;28;20120;-72
2021/08/28 05:12:51;;;;;;;3.50;2.92;;;17.30;66.60;;;;;;5052137;28;20021;-72
2021/08/28 05:15:18;;;;;;;4.13;3.20;;;17.30;66.60;;;;;;5035230;28;20025;-73
2021/08/28 05:17:44;;;;;;;6.63;3.38;;;17.30;66.90;;;;;;5035435;28;20025;-72
2021/08/28 05:20:10;;;;;;;4.28;3.33;;;17.30;66.90;;;;;;5035377;28;20036;-72
2021/08/28 05:22:36;;;;;;;5.82;3.47;;;17.30;66.70;;;;;;5053084;28;20025;-73
2021/08/28 05:25:02;;;;;;;4.25;3.63;;;17.30;66.70;;;;;;5053230;28;20052;-72
2021/08/28 05:27:27;;;;;;;3.53;2.88;;;17.30;66.70;;;;;;5051275;28;20055;-72
2021/08/28 05:29:54;;;;;;;5.90;3.45;;;17.40;67.00;;;;;;5032453;28;20044;-73
2021/08/28 05:32:20;;;;;;;4.80;3.60;;;17.40;67.00;;;;;;5051864;28;20025;-72
2021/08/28 05:34:46;;;;;;;5.43;3.75;;;17.40;67.10;;;;;;5051651;28;20481;-72
2021/08/28 05:37:11;;;;;;;4.82;4.20;;;17.40;67.00;;;;;;5052628;28;20379;-72
2021/08/28 05:39:37;;;;;;;5.00;3.33;;;17.40;66.80;;;;;;5052994;28;20078;-73
2021/08/28 05:42:03;;;;;;;4.63;3.33;;;17.40;66.80;;;;;;5053010;28;20100;-73
2021/08/28 05:44:29;;;;;;;4.90;3.67;;;17.30;66.60;;;;;;5052974;28;20459;-73
2021/08/28 05:46:55;;;;;;;5.07;3.67;;;17.40;66.80;;;;;;5051694;28;20025;-73
2021/08/28 05:49:21;;;;;;;4.95;2.97;;;17.40;66.60;;;;;;5050144;28;20070;-72
2021/08/28 05:51:46;;;;;;;4.90;3.13;;;17.40;66.70;;;;;;5051139;28;20132;-72
2021/08/28 05:54:12;;;;;;;3.60;3.22;;;17.40;66.80;;;;;;5052274;28;20549;-73
2021/08/28 05:56:38;;;;;;;4.75;3.30;;;17.40;66.60;;;;;;5051790;28;20469;-72
2021/08/28 05:59:04;;;;;;;3.78;3.10;;;17.40;66.70;;;;;;5052695;28;20092;-72
2021/08/28 06:01:30;;;;;;;5.40;3.05;;;17.40;66.80;;;;;;5052616;28;20033;-72
2021/08/28 06:03:56;;;;;;;3.88;3.47;;;17.50;66.60;;;;;;5052670;28;20029;-73
2021/08/28 06:06:21;;;;;;;3.55;2.95;;;17.50;66.60;;;;;;5050425;28;20102;-73
2021/08/28 06:08:47;;;;;;;3.63;2.95;;;17.50;66.60;;;;;;5052749;28;20032;-73
2021/08/28 06:11:13;;;;;;;3.90;3.25;;;17.60;66.90;;;;;;5049913;28;20127;-72
2021/08/28 06:13:39;;;;;;;5.13;3.17;;;17.70;67.20;;;;;;5050917;28;20067;-72
2021/08/28 06:16:05;;;;;;;4.50;3.50;;;17.70;67.20;;;;;;5051897;28;20071;-73
2021/08/28 06:18:31;;;;;;;6.00;3.38;;;17.80;67.00;;;;;;5051427;28;20429;-73
2021/08/28 06:20:58;;;;;;;4.13;3.53;;;17.80;66.50;;;;;;5051986;28;20032;-73
2021/08/28 06:23:24;;;;;;;5.07;3.80;;;17.90;66.40;;;;;;5052924;28;20036;-73
2021/08/28 06:25:50;;;;;;;4.32;3.45;;;17.90;66.20;;;;;;5052957;28;20029;-72
2021/08/28 06:28:16;;;;;;;3.80;3.20;;;18.00;66.10;;;;;;5052601;28;20033;-73
2021/08/28 06:30:42;;;;;;;4.10;3.13;;;18.00;66.10;;;;;;5052149;28;20375;-73
2021/08/28 06:33:08;;;;;;;6.80;3.05;;;18.10;66.10;;;;;;5049324;28;20036;-73
2021/08/28 06:35:34;;;;;;;4.45;3.15;;;18.10;66.00;;;;;;5055452;28;20021;-72
2021/08/28 06:38:00;;;;;;;4.28;3.70;;;18.20;66.00;;;;;;5055104;28;20029;-74
2021/08/28 06:40:26;;;;;;;4.95;3.58;;;18.30;66.10;;;;;;5037174;28;20025;-73
2021/08/28 06:42:52;;;;;;;4.47;3.65;;;18.40;65.60;;;;;;5056160;28;20390;-73
2021/08/28 06:45:18;;;;;;;5.13;3.15;;;18.50;65.50;;;;;;5056032;28;20510;-73
2021/08/28 06:47:43;;;;;;;6.30;3.85;;;18.50;65.40;;;;;;5055955;28;20025;-73
2021/08/28 06:50:09;;;;;;;4.65;3.35;;;18.60;65.10;;;;;;5038135;28;20389;-73
2021/08/28 06:52:35;;;;;;;4.65;3.10;;;18.70;64.90;;;;;;5056009;28;20075;-73
2021/08/28 06:55:03;;;;;;;4.88;3.35;;;18.80;64.70;;;;;;5052851;28;20039;-72
2021/08/28 06:57:28;;;;;;;3.75;3.13;;;19.00;64.90;;;;;;5054405;28;20028;-73
2021/08/28 06:59:54;;;;;;;5.53;3.25;;;19.20;64.50;;;;;;5055021;28;20108;-73
2021/08/28 07:02:20;;;;;;;4.18;3.25;;;19.30;64.70;;;;;;5054772;28;20052;-73
2021/08/28 07:04:46;;;;;;;4.95;3.47;;;19.40;63.30;;;;;;5037462;28;20027;-73
2021/08/28 07:07:12;;;;;;;2.92;2.60;;;19.50;62.40;;;;;;5055726;28;20017;-73
2021/08/28 07:09:37;;;;;;;4.32;2.63;;;19.50;62.30;;;;;;5055669;28;20020;-73
2021/08/28 07:12:03;;;;;;;3.72;3.22;;;19.60;62.20;;;;;;5055557;28;20497;-73
2021/08/28 07:14:29;;;;;;;5.63;2.75;;;19.70;61.80;;;;;;5055456;28;20098;-73
2021/08/28 07:16:55;;;;;;;4.55;3.10;;;19.70;61.80;;;;;;5033987;28;20067;-73
2021/08/28 07:19:21;;;;;;;4.20;2.83;;;19.80;61.90;;;;;;5054362;28;20040;-73
2021/08/28 07:21:47;;;;;;;4.82;3.13;;;19.90;61.40;;;;;;5054644;28;20032;-73
2021/08/28 07:24:13;;;;;;;3.33;2.75;;;19.90;60.70;;;;;;5036213;28;20033;-73
2021/08/28 07:26:38;;;;;;;4.57;2.90;;;19.90;60.60;;;;;;5054744;28;20025;-73
2021/08/28 07:29:04;;;;;;;3.40;2.67;;;20.00;60.30;;;;;;5054743;28;20037;-73
2021/08/28 07:31:30;;;;;;;5.55;3.53;;;20.00;60.80;;;;;;5055263;28;20549;-73
2021/08/28 07:33:56;;;;;;;5.05;3.45;;;20.00;60.70;;;;;;5054828;28;20071;-73
2021/08/28 07:36:22;;;;;;;4.45;3.42;;;20.10;61.00;;;;;;5055177;28;20538;-73
2021/08/28 07:38:48;;;;;;;3.22;2.70;;;20.20;60.50;;;;;;5051649;28;20021;-73
2021/08/28 07:41:14;;;;;;;3.50;3.08;;;20.30;60.70;;;;;;5034222;28;20552;-73
2021/08/28 07:43:40;;;;;;;6.38;3.78;;;20.40;60.30;;;;;;5016626;28;20112;-73
2021/08/28 07:46:06;;;;;;;4.07;2.97;;;20.50;59.60;;;;;;5034029;28;20022;-73
2021/08/28 07:48:31;;;;;;;5.70;3.55;;;20.60;59.80;;;;;;5034704;28;20029;-73
2021/08/28 07:50:57;;;;;;;3.85;2.83;;;20.70;58.80;;;;;;5034987;28;20112;-73
2021/08/28 07:53:23;;;;;;;3.53;2.78;;;20.80;58.60;;;;;;5034938;28;20080;-73
2021/08/28 07:55:49;;;;;;;4.88;2.78;;;20.90;58.10;;;;;;5038274;28;20067;-73
2021/08/28 07:58:15;;;;;;;4.55;3.17;;;21.00;57.50;;;;;;5054602;28;20021;-73
2021/08/28 08:00:41;;;;;;;3.40;2.60;;;21.00;57.20;;;;;;5043204;28;20036;-73
2021/08/28 08:03:07;;;;;;;4.53;2.90;;;21.10;57.60;;;;;;5053827;28;20032;-73
2021/08/28 08:05:33;;;;;;;3.78;2.75;;;21.10;56.70;;;;;;5053086;28;20478;-73
2021/08/28 08:07:59;;;;;;;4.75;2.95;;;21.10;56.40;;;;;;5053406;28;20497;-73
2021/08/28 08:10:25;;;;;;;3.85;3.05;;;21.10;56.40;;;;;;5054403;28;20033;-73
2021/08/28 08:12:51;;;;;;;3.35;2.80;;;21.00;56.50;;;;;;5053214;28;20031;-73
2021/08/28 08:15:16;;;;;;;3.38;2.45;;;21.00;56.80;;;;;;5054396;28;20386;-73
2021/08/28 08:17:42;;;;;;;4.55;2.50;;;21.00;57.20;;;;;;5053067;28;20017;-73
2021/08/28 08:20:09;;;;;;;4.45;2.75;;;21.00;57.30;;;;;;5050921;28;20383;-72
2021/08/28 08:22:34;;;;;;;3.35;2.80;;;21.10;57.40;;;;;;5049573;28;20045;-73
2021/08/28 08:25:00;;;;;;;4.60;2.40;;;21.10;57.10;;;;;;5052528;28;20060;-73
2021/08/28 08:27:26;;;;;;;2.92;2.60;;;21.20;57.30;;;;;;5053408;28;20337;-74
2021/08/28 08:29:52;;;;;;;3.92;2.33;;;21.30;56.10;;;;;;5052213;28;20091;-73
2021/08/28 08:32:18;;;;;;;2.80;2.47;;;21.30;56.60;;;;;;5034927;28;20086;-73
2021/08/28 08:34:44;;;;;;;4.63;2.40;;;21.40;56.30;;;;;;5035327;28;20547;-73
2021/08/28 08:37:10;;;;;;;3.58;1.80;;;21.50;55.90;;;;;;5053188;28;20025;-73
2021/08/28 08:39:36;;;;;;;2.88;2.10;;;21.50;55.90;;;;;;5035298;28;20028;-73
2021/08/28 08:42:04;;;;;;;3.95;2.33;;;21.60;56.40;;;;;;5053063;28;20466;-73
2021/08/28 08:44:31;;;;;;;2.13;1.73;;;21.60;55.20;;;;;;5049136;28;20025;-73
2021/08/28 08:46:58;;;;;;;2.10;1.90;;;21.70;55.00;;;;;;5034017;28;20035;-73
2021/08/28 08:49:25;;;;;;;2.42;2.00;;;21.80;53.90;;;;;;5052200;28;20116;-73
2021/08/28 08:51:53;;;;;;;2.45;2.10;;;21.90;53.80;;;;;;5051547;28;20035;-73
2021/08/28 08:54:20;;;;;;;2.17;1.92;;;21.90;53.10;;;;;;5052802;28;20071;-73
2021/08/28 08:56:46;;;;;;;3.67;2.13;;;21.90;53.00;;;;;;5052074;28;20116;-73
2021/08/28 08:59:13;;;;;;;2.45;2.00;;;21.90;53.20;;;;;;5052776;28;20494;-73
2021/08/28 09:01:39;;;;;;;2.67;2.15;;;21.90;53.60;;;;;;5052203;28;20437;-73
2021/08/28 09:04:05;;;;;;;3.55;2.42;;;22.00;53.30;;;;;;5052765;28;20021;-73
2021/08/28 09:06:31;;;;;;;5.75;2.15;;;21.90;53.20;;;;;;5049085;28;20484;-73
2021/08/28 09:08:56;;;;;;;1.73;1.52;;;21.90;52.50;;;;;;5034077;28;20501;-73
2021/08/28 09:11:24;;;;;;;3.53;1.92;;;21.80;52.40;;;;;;5052257;28;20028;-73
2021/08/28 09:13:51;;;;;;;3.45;1.70;;;21.80;52.20;;;;;;5051759;28;20111;-73
2021/08/28 09:16:32;;;;;;;5.03;1.55;;;21.70;52.40;;;;;;5052265;28;20024;-73
2021/08/28 09:18:58;;;;;;;3.20;1.80;;;21.60;52.70;;;;;;5052451;28;20523;-74
2021/08/28 09:21:31;;;;;;;4.72;1.80;;;21.60;52.90;;;;;;5052425;28;20029;-74
2021/08/28 09:24:01;;;;;;;1.70;1.60;;;21.60;53.10;;;;;;5052526;28;20043;-72
2021/08/28 09:26:36;;;;;;;2.78;1.75;;;21.60;53.30;;;;;;5052263;28;20025;-73
2021/08/28 09:29:04;;;;;;;2.97;1.60;;;21.50;53.40;;;;;;5005180;28;1219996;-73
2021/08/28 09:31:40;;;;;;;6.00;1.70;;;21.50;53.50;;;;;;5051824;28;20037;-73
2021/08/28 09:34:32;;;;;;;2.90;1.90;;;21.40;53.40;;;;;;5051885;28;20059;-73
2021/08/28 09:37:06;;;;;;;3.25;2.10;;;21.30;54.20;;;;;;5047070;28;20029;-73
2021/08/28 09:39:36;;;;;;;;;;;21.30;54.30;;;;;;5052113;28;20044;-73
2021/08/28 09:42:02;;;;;;;2.15;1.75;;;21.30;54.90;;;;;;5052747;28;20424;-74
2021/08/28 09:44:38;;;;;;;2.33;1.80;;;21.30;54.60;;;;;;5052882;28;20037;-74
2021/08/28 09:47:09;;;;;;;8.27;2.40;;;21.30;55.00;;;;;;5034997;28;20120;-76
2021/08/28 09:49:34;;;;;;;4.28;2.05;;;21.40;55.40;;;;;;5049137;28;20029;-73
2021/08/28 09:52:00;;;;;;;3.53;2.08;;;21.50;55.20;;;;;;5052284;28;20036;-73
2021/08/28 09:54:26;;;;;;;4.20;1.58;;;21.60;55.00;;;;;;5034192;28;20028;-73
2021/08/28 09:57:02;;;;;;;2.47;1.60;;;21.70;54.20;;;;;;5051730;28;20029;-74
2021/08/28 09:59:28;;;;;;;4.25;1.75;;;21.70;54.30;;;;;;5052471;28;20142;-73
2021/08/28 10:01:53;;;;;;;2.33;1.50;;;21.80;53.80;;;;;;5052728;28;20104;-74
2021/08/28 10:04:19;;;;;;;1.65;1.00;;;21.80;53.30;;;;;;5034752;28;20581;-73
2021/08/28 10:06:47;;;;;;;2.17;1.30;;;21.90;53.40;;;;;;5052697;28;20052;-74
2021/08/28 10:09:14;;;;;;;1.13;1.02;;;22.00;53.00;;;;;;5054799;28;20381;-74
2021/08/28 10:11:44;;;;;;;0.70;0.70;;;22.00;52.20;;;;;;5052628;28;20033;-74
2021/08/28 10:14:14;;;;;;;0.88;0.85;;;22.10;52.50;;;;;;5055210;28;20078;-73
2021/08/28 10:16:41;;;;;;;2.05;1.00;;;22.30;52.50;;;;;;5052717;28;20071;-73
2021/08/28 10:19:07;;;;;;;2.25;1.25;;;22.50;52.30;;;;;;5055639;28;20028;-74
2021/08/28 10:21:35;;;;;;;2.10;0.90;;;22.60;52.00;;;;;;5056415;28;20501;-73
2021/08/28 10:24:00;;;;;;;1.00;0.90;;;22.80;51.40;;;;;;5056436;28;20416;-74
2021/08/28 10:26:26;;;;;;;1.30;1.20;;;22.90;50.80;;;;;;5056460;28;20082;-73
2021/08/28 10:28:57;;;;;;;1.63;0.98;;;23.10;50.70;;;;;;5055046;28;20024;-74
2021/08/28 10:31:27;;;;;;;1.13;0.98;;;23.20;49.60;;;;;;5052981;28;20478;-74
2021/08/28 10:33:53;;;;;;;1.45;0.98;;;23.30;49.10;;;;;;5052467;28;20281;-74
2021/08/28 10:36:19;;;;;;;1.30;1.00;;;23.40;48.20;;;;;;5055690;28;20029;-74
2021/08/28 10:38:47;;;;;;;1.20;0.90;;;23.40;48.20;;;;;;5055813;28;20111;-73
2021/08/28 10:41:14;;;;;;;1.50;1.05;;;23.40;47.80;;;;;;5055127;28;20028;-73
2021/08/28 10:43:42;;;;;;;2.03;1.00;;;23.50;47.70;;;;;;5054040;28;20033;-75
2021/08/28 10:46:26;;;;;;;2.95;0.88;;;23.50;47.70;;;;;;5056139;28;20024;-72
2021/08/28 10:48:57;;;;;;;3.13;0.93;;;23.50;47.50;;;;;;5038025;28;20060;-72
2021/08/28 10:51:25;;;;;;;1.67;1.10;;;23.40;47.00;;;;;;5059351;28;20036;-72
2021/08/28 10:53:54;;;;;;;0.57;0.50;;;23.40;46.70;;;;;;5055708;28;20359;-73
2021/08/28 10:56:45;;;;;;;1.10;0.80;;;23.30;46.60;;;;;;5050096;28;20029;-72
2021/08/28 10:59:34;;;;;;;0.90;0.70;;;23.30;46.60;;;;;;5054969;28;20017;-73
2021/08/28 11:02:12;;;;;;;0.80;0.70;;;23.20;45.20;;;;;;5034629;28;20060;-73
2021/08/28 11:04:47;;;;;;;0.60;0.60;;;23.20;45.80;;;;;;5035881;28;20037;-73
2021/08/28 11:07:40;;;;;;;1.88;0.73;;;23.20;45.90;;;;;;5035799;28;20029;-73
2021/08/28 11:10:09;;;;;;;0.85;0.70;;;23.20;46.30;;;;;;5050082;28;20024;-74
2021/08/28 11:12:42;;;;;;;1.13;0.70;;;23.20;46.10;;;;;;5041060;28;20029;-74
2021/08/28 11:15:38;;;;;;;0.90;0.60;;;23.20;45.90;;;;;;5052541;28;20025;-74
2021/08/28 11:18:09;;;;;;;0.63;0.52;;;23.30;47.10;;;;;;5028292;28;20391;-74
2021/08/28 11:20:47;;;;;;;0.85;0.82;;;23.40;46.20;;;;;;5053416;28;20028;-73
2021/08/28 11:23:16;;;;;;;0.85;0.63;;;23.50;46.70;;;;;;5036431;28;20056;-73
2021/08/28 11:25:44;;;;;;;0.73;0.57;;;23.60;46.40;;;;;;5054825;28;20047;-74
2021/08/28 11:28:11;;;;;;;0.88;0.70;;;23.80;45.30;;;;;;5054774;28;20029;-74
2021/08/28 11:30:52;;;;;;;0.60;0.60;;;23.90;44.80;;;;;;5054866;28;20091;-74
2021/08/28 11:33:27;;;;;;;0.75;0.70;;;24.00;44.90;;;;;;5053799;28;20079;-74
2021/08/28 11:36:18;;;;;;;1.17;0.65;;;24.00;44.00;;;;;;5053385;28;20032;-73
2021/08/28 11:38:50;;;;;;;1.35;0.50;;;24.10;44.40;;;;;;5049862;28;20017;-73
2021/08/28 11:41:26;;;;;;;0.65;0.57;;;24.10;44.10;;;;;;5054363;28;20482;-74
2021/08/28 11:43:54;;;;;;;0.68;0.65;;;24.00;45.10;;;;;;5039413;28;20029;-73
2021/08/28 11:46:25;;;;;;;2.90;1.08;;;23.90;44.90;;;;;;5044253;28;20071;-72
2021/08/28 11:48:51;;;;;;;1.75;0.90;;;23.60;54.20;;;;;;5049011;28;20025;-76
2021/08/28 11:51:20;;;;;;;1.67;1.10;;;23.10;53.60;;;;;;5054743;28;20100;-77
2021/08/28 11:53:50;;;;;;;0.60;0.60;;;22.60;54.30;;;;;;5055069;28;20042;-77
2021/08/28 11:56:18;;;;;;;1.08;0.82;;;22.10;56.10;;;;;;5055250;28;20021;-77
2021/08/28 11:59:03;;;;;;;4.70;1.10;;;21.70;57.50;;;;;;5037278;28;20025;-76
2021/08/28 12:01:34;;;;;;;;;;;21.40;58.80;;;;;;5051599;28;20029;-76
2021/08/28 12:04:05;;;;;;;1.25;0.80;;;21.20;58.20;;;;;;5054801;28;19905;-77
2021/08/28 12:06:32;;;;;;;1.13;0.70;;;21.00;60.70;;;;;;5053985;28;20061;-76
2021/08/28 12:08:58;;;;;;;1.35;0.70;;;21.00;62.10;;;;;;5054064;28;20043;-77
2021/08/28 12:11:25;;;;;;;4.57;0.90;;;20.90;62.60;;;;;;5054525;28;20074;-76
2021/08/28 12:13:54;;;;;;;2.85;1.23;;;20.80;61.80;;;;;;5054145;28;20490;-76
2021/08/28 12:16:24;;;;;;;1.00;0.82;;;20.80;60.80;;;;;;5053869;28;20028;-75
2021/08/28 12:19:02;;;;;;;3.13;1.08;;;20.70;61.80;;;;;;5054210;28;20040;-76
2021/08/28 12:21:30;;;;;;;1.40;1.05;;;20.60;62.00;;;;;;5035379;28;20474;-75
2021/08/28 12:23:56;;;;;;;2.08;1.10;;;20.60;62.40;;;;;;5050559;28;20111;-75
2021/08/28 12:26:22;;;;;;;2.75;1.42;;;20.60;62.50;;;;;;5040727;28;20478;-77
2021/08/28 12:28:49;;;;;;;1.20;0.93;;;20.60;63.40;;;;;;5051547;28;20041;-75
2021/08/28 12:31:18;;;;;;;6.10;1.00;;;20.60;63.60;;;;;;5052710;28;20021;-76
2021/08/28 12:33:44;;;;;;;1.00;0.90;;;20.70;63.30;;;;;;5053885;28;20033;-76
2021/08/28 12:36:29;;;;;;;1.73;0.90;;;20.80;64.60;;;;;;5053261;28;20021;-76
2021/08/28 12:39:14;;;;;;;0.90;0.75;;;21.00;63.60;;;;;;5023476;28;20124;-76
2021/08/28 12:41:40;;;;;;;1.70;0.90;;;21.20;63.20;;;;;;5054009;28;20490;-76
2021/08/28 12:44:10;;;;;;;0.82;0.80;;;21.40;62.80;;;;;;5049458;28;20040;-76
2021/08/28 12:46:38;;;;;;;1.05;0.90;;;21.70;63.50;;;;;;5048858;28;20037;-76
2021/08/28 12:49:20;;;;;;;1.85;0.63;;;22.00;62.50;;;;;;5051469;28;20147;-77
2021/08/28 12:52:07;;;;;;;0.90;0.68;;;22.30;59.20;;;;;;5038611;28;20013;-76
2021/08/28 12:54:54;;;;;;;2.33;0.65;;;22.40;56.10;;;;;;5045015;28;20044;-77